^^

METAR Αεροδρομίων

σε ακτίνα 500 χλμ


 Τι είναι το METAR ??? 

Πρώτο είναι το πλησιέστερο αεροδρόμιο (Θεσ/νίκη LGTS 6χλμ) και
τέλος το πιο απομακρυσμένο (Κων/πολη LTBA 494χλμ).
Επίσης μερικές αναφορές, παρουσιάζουν λιγότερα στοιχεία γιατί
οι αρχικές είναι ελλιπείς ή έχουν λάθος μορφοποίηση.
Πηγαίνετε στις Αναφορές METAR από Μετεωρολογικούς Σταθμούς )  
Αλφαβητική Λίστα Γρήγορης Μετάβασης στα 48 Αεροδρόμια
Αλβανία: Τίρανα  Βουλγαρία: Γκόρνα Οριαχόβιτσα  Μπουργκάς  Σόφια  Φιλιππούπολη  Ελλάδα: Αθήνα  Αλεξανδρούπολη  Ανδραβίδα  Βόλος  Ελευσίνα  Ζάκυνθος  Θεσσαλονίκη  Ιωάννινα  Καβάλα  Καλαμάτα  Κέρκυρα  Κεφαλονιά  Κοζάνη  Κύθηρα
Λέσβος  Λήμνος  Μύκονος  Νάξος  Πάρος  Πάτρα  Πρέβεζα  Σάμος  Σκιάθος  Σκύρος  Σύρος  Χίος  Ιταλία: Γκαλατίνα  Μπρίντιζι  Σάντα Μαρία ντι Λέουκα  Ταράντο  Κόσοβο: Πρίστινα  Κροατία: Ντουμπρόβνικ  Μαυροβούνιο: Ποντγκόριτσα  Τιβάτ
Δ.Β.Μ: Οχρίδα  Σκόπια  Ρουμανία: Κραϊόβα  Σερβία: Κράλιεβο  Νις  Ούζιτσε  Τουρκία: Κωνσταντινούπολη  Σμύρνη Τσορλού 
(ΒΠΑ)Βάση Πολεμικής Αεροπορίας
LGTS - Αεροδρόμιο "Μακεδονία"
Θεσσαλονίκη - Κεντρική Μακεδονία - Ελλάδα
Γ.Πλάτ: 40.5167 - Γ.Μήκ: 22.9667 - Υψόμ: 7μ
Απόσταση από το Vouhead Weather: (Ν) 6χλμ
Ενημερώθηκε: 18/01/2021 15:20
Αίθριος
Αίθριος
 Άνεμος από ΒΔ
Άνεμος: ΒΔ 15 km/h
Θερμοκρασία: 4°C
Ψυχρότητα Ανέμου: 1°C
Σημ. Δρόσου: -9°C
Υγρασία: 39%
Βαρόμετρο: 1022 hPa
Περίληψη: Αίθριος
Ορατότητα: Μεγαλύτερη από 10 km
2021/01/18 13:20 LGTS 181320Z 32008KT CAVOK 04/M09 Q1022 NOSIG
LGKZ - Αεροδρόμιο "Φίλιππος"
Κοζάνη - Δυτική Μακεδονία - Ελλάδα
Γ.Πλάτ: 40.2833 - Γ.Μήκ: 21.8333 - Υψόμ: 628μ
Απόσταση από το Vouhead Weather: (ΔΝΔ) 102χλμ
Ενημερώθηκε: 18/01/2021 15:20

 Άνεμος από ΒΒΔ
Άνεμος: ΒΒΔ 15 km/h
Θερμοκρασία: -2°C
Ψυχρότητα Ανέμου: -7°C
Σημ. Δρόσου: -12°C
Υγρασία: 47%
Βαρόμετρο: 1019 hPa
2021/01/18 13:20 LGKZ 181320Z AUTO 34008KT 310V010 //// // ////// M02/M12 Q1019 RE//
 
LGKV - Αεροδρόμιο "Μέγας Αλέξανδρος"
Καβάλα(Χρυσούπολη) - Α. Μακεδονία & Θράκη - Ελλάδα
Γ.Πλάτ: 40.9167 - Γ.Μήκ: 24.6167 - Υψόμ: 5μ
Απόσταση από το Vouhead Weather: (ΑΒΑ) 144χλμ
Ενημερώθηκε: 18/01/2021 15:20
Διάσπαρτα νέφη
Διάσπαρτα νέφη
 Άνεμος από ΑΝΑ
Άνεμος: ΑΝΑ 7 km/h
Θερμοκρασία: 3°C
Ψυχρότητα Ανέμου: 1°C
Σημ. Δρόσου: -12°C
Υγρασία: 33%
Βαρόμετρο: 1021 hPa
Σύννεφα: Διάσπαρτα νέφη
Ορατότητα: 10 km
Ανάλυση νέφωσης: Διάσπαρτα νέφη 762 m
2021/01/18 13:20 LGKV 181320Z 12004KT 9999 FEW025 03/M12 Q1021
LGBL - Αεροδρόμιο στη Νέα Αγχίαλο
Βόλος(Αλμυρός) - Θεσσαλία - Ελλάδα
Γ.Πλάτ: 39.2167 - Γ.Μήκ: 22.8000 - Υψόμ: 26μ
Απόσταση από το Vouhead Weather: (Ν) 151χλμ
Ενημερώθηκε: 18/01/2021 15:20
Κυρίως νεφελώδης
Κυρίως νεφελώδης
 Άνεμος από ΔΒΔ
Άνεμος: ΔΒΔ 13 km/h
Θερμοκρασία: 5°C
Ψυχρότητα Ανέμου: 2°C
Σημ. Δρόσου: -5°C
Υγρασία: 49%
Βαρόμετρο: 1021 hPa
Σύννεφα: Κυρίως νεφελώδης
Ορατότητα: 10 km
Ανάλυση νέφωσης: Μερικώς νεφελώδης 914 m
Κυρίως νεφελώδης 2134 m
2021/01/18 13:20 LGBL 181320Z 30007KT 9999 SCT030 BKN070 05/M05 Q1021
 
LGSK - Αεροδρόμ. "Αλέξανδρος Παπαδιαμάντης"
Σκιάθος - Θεσσαλία(Σποράδες) - Ελλάδα
Γ.Πλάτ: 39.1833 - Γ.Μήκ: 23.5000 - Υψόμ: 15μ
Απόσταση από το Vouhead Weather: (ΝΝΑ) 160χλμ
Ενημερώθηκε: 18/01/2021 14:50
Ασθενής χιονόπτωση, Βροχή, Κυρίως νεφελώδης
Ασθενής χιονόπτωση, Βροχή, Κυρίως νεφελώδης
 Άνεμος από Β
Άνεμος: Β 19 km/h
Θερμοκρασία: 3°C
Ψυχρότητα Ανέμου: -2°C
Σημ. Δρόσου: 0°C
Υγρασία: 81%
Βαρόμετρο: 1020 hPa
Περίληψη: Ασθενής χιονόπτωση, Βροχή
Σύννεφα: Κυρίως νεφελώδης
Ορατότητα: 7 km
Ανάλυση νέφωσης: Μερικώς νεφελώδης 213 m
Κυρίως νεφελώδης 762 m
2021/01/18 12:50 LGSK 181250Z 01010KT 7000 -SNRA SCT007 BKN025 03/00 Q1020
LWSK - Αεροδρόμιο "Σκόπγιε Ιντερνάσιοναλ Έιρπορτ"
Σκόπια(Πέτροβακ) - Περιφέρεια Σκοπίων - Δ.Β.Μ
Γ.Πλάτ: 41.9667 - Γ.Μήκ: 21.6333 - Υψόμ: 239μ
Απόσταση από το Vouhead Weather: (ΒΔ) 192χλμ
Ενημερώθηκε: 18/01/2021 15:30
Αίθριος
Αίθριος
 Άνεμος από ΒΒΑ
Άνεμος: ΒΒΑ 15 km/h
Θερμοκρασία: 0°C
Ψυχρότητα Ανέμου: -4°C
Σημ. Δρόσου: -10°C
Υγρασία: 47%
Βαρόμετρο: 1022 hPa
Περίληψη: Αίθριος
Ορατότητα: Μεγαλύτερη από 10 km
2021/01/18 13:30 LWSK 181330Z 02008KT CAVOK M00/M10 Q1022 NOSIG
 
LWOH - Αεροδρόμιο "Σεντ Πολ Δε Απόστλ"
Οχρίδα - Νοτιοδυτική Περιφέρεια - Δ.Β.Μ
Γ.Πλάτ: 41.9667 - Γ.Μήκ: 21.6333 - Υψόμ: 239μ
Απόσταση από το Vouhead Weather: (ΔΒΔ) 193χλμ
Ενημερώθηκε: 18/01/2021 15:00
Διάσπαρτα νέφη
Διάσπαρτα νέφη
 Άνεμος από ΝΝΔ
Άνεμος: ΝΝΔ 4 km/h
Θερμοκρασία: 0°C
Σημ. Δρόσου: -13°C
Υγρασία: 37%
Βαρόμετρο: 1018 hPa
Σύννεφα: Διάσπαρτα νέφη
Ορατότητα: 10 km
Ανάλυση νέφωσης: Διάσπαρτα νέφη 1524 m
2021/01/18 13:00 LWOH 181300Z 21002KT 9999 FEW050 00/M13 Q1018
LGLM - Αεροδρόμιο "Ήφαιστος"
Λήμνος - Βόρειο Αιγαίο - Ελλάδα
Γ.Πλάτ: 39.9167 - Γ.Μήκ: 25.2333 - Υψόμ: 5μ
Απόσταση από το Vouhead Weather: (ΑΝΑ) 205χλμ
Ενημερώθηκε: 18/01/2021 15:20
Διάσπαρτα νέφη
Διάσπαρτα νέφη
 Άνεμος από ΒΑ
Άνεμος: ΒΑ 17 km/h
Θερμοκρασία: 3°C
Ψυχρότητα Ανέμου: -1°C
Σημ. Δρόσου: -7°C
Υγρασία: 48%
Βαρόμετρο: 1021 hPa
Σύννεφα: Διάσπαρτα νέφη
Ορατότητα: 10 km
Ανάλυση νέφωσης: Διάσπαρτα νέφη 610 m
2021/01/18 13:20 LGLM 181320Z 04009KT 9999 FEW020 03/M07 Q1021
 
LGIO - Αεροδρόμιο "Βασιλεύς Πύρρος"
Ιωάννινα - Ήπειρος - Ελλάδα
Γ.Πλάτ: 39.7000 - Γ.Μήκ: 20.8167 - Υψόμ: 476μ
Απόσταση από το Vouhead Weather: (ΔΝΔ) 207χλμ
Ενημερώθηκε: 18/01/2021 15:20
Διάσπαρτα νέφη
Διάσπαρτα νέφη
 Άνεμος από ΒΒΔ
Άνεμος: ΒΒΔ 6 km/h
Θερμοκρασία: 5°C
Σημ. Δρόσου: -10°C
Υγρασία: 33%
Βαρόμετρο: 1016 hPa
Σύννεφα: Διάσπαρτα νέφη
Ορατότητα: 10 km
Ανάλυση νέφωσης: Διάσπαρτα νέφη 1067 m
2021/01/18 13:20 LGIO 181320Z 33003KT 9999 FEW035 05/M10 Q1016
LGSY - Αεροδρόμιο στη Σκύρο
Σκύρος - Θεσσαλία(Σποράδες) - Ελλάδα
Γ.Πλάτ: 38.9667 - Γ.Μήκ: 24.4833 - Υψόμ: 15μ
Απόσταση από το Vouhead Weather: (ΝΑ) 220χλμ
Ενημερώθηκε: 18/01/2021 14:50
Κυρίως νεφελώδης
Κυρίως νεφελώδης
 Άνεμος από ΒΒΑ
Άνεμος: ΒΒΑ 24 km/h
Θερμοκρασία: 5°C
Ψυχρότητα Ανέμου: 1°C
Σημ. Δρόσου: 3°C
Υγρασία: 87%
Βαρόμετρο: 1020 hPa
Σύννεφα: Κυρίως νεφελώδης
Ορατότητα: 10 km
Ανάλυση νέφωσης: Διάσπαρτα νέφη 549 m
Κυρίως νεφελώδης 914 m
2021/01/18 12:50 LGSY 181250Z 03013KT 9999 FEW018 BKN030 05/03 Q1020 RMK FEW070 BLU
 
LBPD - Αεροδρόμιο στη Φιλιππούπολη
Φιλιππούπολη(Κρούμοβο) - Πλόβντιβ - Βουλγαρία
Γ.Πλάτ: 42.1333 - Γ.Μήκ: 24.8000 - Υψόμ: 185μ
Απόσταση από το Vouhead Weather: (ΒΑ) 231χλμ
Ενημερώθηκε: 18/01/2021 15:00
Αίθριος
Αίθριος
 Άνεμος από ΔΒΔ
Άνεμος: ΔΒΔ 20 km/h
Θερμοκρασία: 1°C
Ψυχρότητα Ανέμου: -4°C
Σημ. Δρόσου: -11°C
Υγρασία: 41%
Βαρόμετρο: 1020 hPa
Σύννεφα: Αίθριος
Ορατότητα: 10 km
2021/01/18 13:00 LBPD 181300Z AUTO 30011KT 9999 NCD 01/M11 Q1020 NOSIG
LBSF - Αεροδρόμιο στη Σόφια
Σόφια(Βράτσντεμπνα) - Μητρ. περ. Σόφιας - Βουλγαρία
Γ.Πλάτ: 42.6500 - Γ.Μήκ: 23.3833 - Υψόμ: 595μ
Απόσταση από το Vouhead Weather: (Β) 234χλμ
Ενημερώθηκε: 18/01/2021 15:00
Διάσπαρτα νέφη
Διάσπαρτα νέφη
 Άνεμος από ΔΒΔ
Άνεμος: ΔΒΔ 31 km/h
Θερμοκρασία: -3°C
Ψυχρότητα Ανέμου: -11°C
Σημ. Δρόσου: -10°C
Υγρασία: 59%
Βαρόμετρο: 1019 hPa
Σύννεφα: Διάσπαρτα νέφη
Ορατότητα: 10 km
Ανάλυση νέφωσης: Διάσπαρτα νέφη 945 m
2021/01/18 13:00 LBSF 181300Z 30017KT 9999 FEW031 M03/M10 Q1019 NOSIG
 
LGAL - Αεροδρόμιο "Δημόκριτος"
Αλεξανδρούπολη - Α. Μακεδονία & Θράκη - Ελλάδα
Γ.Πλάτ: 40.8500 - Γ.Μήκ: 25.9167 - Υψόμ: 3μ
Απόσταση από το Vouhead Weather: (Α) 250χλμ
Ενημερώθηκε: 18/01/2021 15:20
Αίθριος
Αίθριος
 Άνεμος από ΑΝΑ
Άνεμος: ΑΝΑ 19 km/h
Θερμοκρασία: 3°C
Ψυχρότητα Ανέμου: -2°C
Σημ. Δρόσου: -6°C
Υγρασία: 52%
Βαρόμετρο: 1021 hPa
Περίληψη: Αίθριος
Ορατότητα: Μεγαλύτερη από 10 km
2021/01/18 13:20 LGAL 181320Z 11010KT CAVOK 03/M06 Q1021
BKPR - Αεροδρόμιο "Αντεμ Γιασάρι"
Πρίστινα - Πρίστινα - Κόσοβο
(Ελληνικό Υπουργείο Εξωτερικών, σχετικά με το Κόσοβο)
Γ.Πλάτ: 42.5833 - Γ.Μήκ: 21.0333 - Υψόμ: 576μ
Απόσταση από το Vouhead Weather: (ΒΔ) 276χλμ
Ενημερώθηκε: 18/01/2021 15:30
Διάσπαρτα νέφη
Διάσπαρτα νέφη
 Άνεμος από Μεταβλητός
Άνεμος: Μεταβλητός 4 km/h
Θερμοκρασία: -4°C
Σημ. Δρόσου: -12°C
Υγρασία: 54%
Βαρόμετρο: 1021 hPa
Σύννεφα: Διάσπαρτα νέφη
Ορατότητα: 10 km
Ανάλυση νέφωσης: Διάσπαρτα νέφη 1219 m
2021/01/18 13:30 BKPR 181330Z VRB02KT 9999 FEW040 M04/M12 Q1021 NOSIG RMK 17010095
 
LGKR - Αεροδρόμιο "Ιωάννης Καποδίστριας"
Κέρκυρα - Ιόνιοι Νήσοι - Ελλάδα
Γ.Πλάτ: 39.6000 - Γ.Μήκ: 19.9167 - Υψόμ: 2μ
Απόσταση από το Vouhead Weather: (ΔΝΔ) 281χλμ
Ενημερώθηκε: 18/01/2021 15:20
Μερικώς νεφελώδης
Μερικώς νεφελώδης
 Άνεμος από ΔΒΔ
Άνεμος: ΔΒΔ 11 km/h
Θερμοκρασία: 10°C
Ψυχρότητα Ανέμου: 8°C
Σημ. Δρόσου: -6°C
Υγρασία: 32%
Βαρόμετρο: 1018 hPa
Σύννεφα: Μερικώς νεφελώδης
Ορατότητα: 10 km
Ανάλυση νέφωσης: Μερικώς νεφελώδης 762 m
2021/01/18 13:20 LGKR 181320Z 30006KT 9999 SCT025 10/M06 Q1018 NOSIG
LATI - Αεροδρόμιο "Μάδερ Τερέζα"
Τίρανα(Ρίνα) - Τίρανα - Αλβανία
Γ.Πλάτ: 41.3167 - Γ.Μήκ: 19.7667 - Υψόμ: 90μ
Απόσταση από το Vouhead Weather: (ΔΒΔ) 282χλμ
Ενημερώθηκε: 18/01/2021 15:20
Αίθριος
Αίθριος
 Άνεμος από ΒΒΔ
Άνεμος: ΒΒΔ 17 km/h
Θερμοκρασία: 7°C
Ψυχρότητα Ανέμου: 4°C
Σημ. Δρόσου: -9°C
Υγρασία: 31%
Βαρόμετρο: 1020 hPa
Περίληψη: Αίθριος
Ορατότητα: Μεγαλύτερη από 10 km
2021/01/18 13:20 LATI 181320Z 34009KT CAVOK 07/M09 Q1020 NOSIG
 
LGEL - Αεροδρόμιο στην Ελευσίνα(ΒΠΑ)
Ελευσίνα - Αττική - Ελλάδα
Γ.Πλάτ: 38.0667 - Γ.Μήκ: 23.5500 - Υψόμ: 31μ
Απόσταση από το Vouhead Weather: (Ν) 282χλμ
Ενημερώθηκε: 18/01/2021 15:20
Μερικώς νεφελώδης
Μερικώς νεφελώδης
 Άνεμος από ΒΒΔ
Άνεμος: ΒΒΔ 17 km/h
Θερμοκρασία: 5°C
Ψυχρότητα Ανέμου: 2°C
Σημ. Δρόσου: 0°C
Υγρασία: 70%
Βαρόμετρο: 1018 hPa
Σύννεφα: Μερικώς νεφελώδης
Ορατότητα: 10 km
Ανάλυση νέφωσης: Διάσπαρτα νέφη 244 m
Μερικώς νεφελώδης 762 m
2021/01/18 13:20 LGEL 181320Z 34009KT 9999 FEW008 SCT025 05/00 Q1018
LGPZ - Αεροδρόμιο στη Πρέβεζα
Πρέβεζα(Ακτιον) - Ήπειρος - Ελλάδα
Γ.Πλάτ: 38.6167 - Γ.Μήκ: 20.7667 - Υψόμ: 4μ
Απόσταση από το Vouhead Weather: (ΝΔ) 288χλμ
Ενημερώθηκε: 18/01/2021 15:20
Διάσπαρτα νέφη
Διάσπαρτα νέφη
 Άνεμος από ΑΒΑ
Άνεμος: ΑΒΑ 9 km/h
Θερμοκρασία: 9°C
Ψυχρότητα Ανέμου: 7°C
Σημ. Δρόσου: -4°C
Υγρασία: 40%
Βαρόμετρο: 1018 hPa
Σύννεφα: Διάσπαρτα νέφη
Ορατότητα: 10 km
Ανάλυση νέφωσης: Διάσπαρτα νέφη 762 m
2021/01/18 13:20 LGPZ 181320Z 07005KT 9999 FEW025 09/M04 Q1018
 
LGRX - Αεροδρόμιο στη Πάτρα(ΒΠΑ)
Πάτρα(Αραξος) - Δυτική Ελλάδα - Ελλάδα
Γ.Πλάτ: 38.1667 - Γ.Μήκ: 21.4167 - Υψόμ: 15μ
Απόσταση από το Vouhead Weather: (ΝΝΔ) 299χλμ
Ενημερώθηκε: 18/01/2021 15:20
Διάσπαρτα νέφη
Διάσπαρτα νέφη
 Άνεμος από ΒΑ
Άνεμος: ΒΑ 13 km/h
Θερμοκρασία: 9°C
Ψυχρότητα Ανέμου: 7°C
Σημ. Δρόσου: -1°C
Υγρασία: 50%
Βαρόμετρο: 1017 hPa
Σύννεφα: Διάσπαρτα νέφη
Ορατότητα: 10 km
Ανάλυση νέφωσης: Διάσπαρτα νέφη 1067 m
2021/01/18 13:20 LGRX 181320Z 05007KT 9999 FEW035 09/M01 Q1017
LGAV - Αεροδρόμιο "Ελευθέριος Βεμιζέλος"
Αθήνα(Σπάτα) - Αττική - Ελλάδα
Γ.Πλάτ: 37.9333 - Γ.Μήκ: 23.9500 - Υψόμ: 94μ
Απόσταση από το Vouhead Weather: (ΝΝΑ) 305χλμ
Ενημερώθηκε: 18/01/2021 15:20
Μερικώς νεφελώδης
Μερικώς νεφελώδης
 Άνεμος από Β
Άνεμος: Β 22 km/h
Θερμοκρασία: 5°C
Ψυχρότητα Ανέμου: 1°C
Σημ. Δρόσου: 1°C
Υγρασία: 76%
Βαρόμετρο: 1019 hPa
Σύννεφα: Μερικώς νεφελώδης
Ορατότητα: 10 km
Ανάλυση νέφωσης: Μερικώς νεφελώδης 610 m
2021/01/18 13:20 LGAV 181320Z 01012KT 9999 SCT020 05/01 Q1019 NOSIG
 
LYNI - Αεροδρόμιο "Κονσταντίν Δε Γκρέιτ"
Νις - Νότια και Ανατολική Σερβία - Σερβία
Γ.Πλάτ: 43.3167 - Γ.Μήκ: 21.8833 - Υψόμ: 202μ
Απόσταση από το Vouhead Weather: (ΒΒΔ) 319χλμ
Ενημερώθηκε: 18/01/2021 15:00
Ασθενής χιονόπτωση, Κυρίως νεφελώδης
Ασθενής χιονόπτωση, Κυρίως νεφελώδης
 Άνεμος από ΒΒΔ
Άνεμος: ΒΒΔ 6 km/h
Θερμοκρασία: -3°C
Σημ. Δρόσου: -8°C
Υγρασία: 69%
Βαρόμετρο: 1024 hPa
Περίληψη: Ασθενής χιονόπτωση
Σύννεφα: Κυρίως νεφελώδης
Ορατότητα: 10 km
Ανάλυση νέφωσης: Μερικώς νεφελώδης 914 m
Κυρίως νεφελώδης 1128 m
2021/01/18 13:00 LYNI 181300Z 33003KT 300V020 9999 -SN SCT030 BKN037 M03/M08 Q1024 R11/2///95 NOSIG
LGAD - Αεροδρόμιο στην Ανδραβίδα(ΒΠΑ)
Ανδραβίδα - Δυτική Ελλάδα - Ελλάδα
Γ.Πλάτ: 37.9167 - Γ.Μήκ: 21.2667 - Υψόμ: 12μ
Απόσταση από το Vouhead Weather: (ΝΝΔ) 329χλμ
Ενημερώθηκε: 18/01/2021 15:20
Διάσπαρτα νέφη
Διάσπαρτα νέφη
 Άνεμος από Β
Άνεμος: Β 11 km/h
Θερμοκρασία: 10°C
Ψυχρότητα Ανέμου: 8°C
Σημ. Δρόσου: 1°C
Υγρασία: 54%
Βαρόμετρο: 1017 hPa
Σύννεφα: Διάσπαρτα νέφη
Ορατότητα: 10 km
Ανάλυση νέφωσης: Διάσπαρτα νέφη 610 m
2021/01/18 13:20 LGAD 181320Z 36006KT 9999 FEW020 10/01 Q1017
 
LGKF - Αεροδρόμιο στην Κεφαλονιά
Κεφαλονιά - Ιόνιοι Νήσοι - Ελλάδα
Γ.Πλάτ: 38.1167 - Γ.Μήκ: 20.5000 - Υψόμ: 18μ
Απόσταση από το Vouhead Weather: (ΝΔ) 346χλμ
Ενημερώθηκε: 18/01/2021 13:50
ΜΗ ΠΡΟΣΦΑΤΟ METAR
Διάσπαρτα νέφη
Διάσπαρτα νέφη
 Άνεμος από Β
Άνεμος: Β 15 km/h
Θερμοκρασία: 10°C
Ψυχρότητα Ανέμου: 8°C
Σημ. Δρόσου: -2°C
Υγρασία: 43%
Βαρόμετρο: 1017 hPa
Σύννεφα: Διάσπαρτα νέφη
Ορατότητα: 10 km
Ανάλυση νέφωσης: Διάσπαρτα νέφη 549 m
2021/01/18 11:50 LGKF 181150Z 36008KT 9999 FEW018 10/M02 Q1017
LGMT - Αεροδρόμιο "Οδυσσέας Ελύτης"
Λέσβος - Βόρειο Αιγαίο - Ελλάδα
Γ.Πλάτ: 39.0500 - Γ.Μήκ: 26.6000 - Υψόμ: 17μ
Απόσταση από το Vouhead Weather: (ΑΝΑ) 353χλμ
Ενημερώθηκε: 18/01/2021 15:20
Διάσπαρτα νέφη
Διάσπαρτα νέφη
 Άνεμος από Β
Άνεμος: Β 11 km/h
Θερμοκρασία: 5°C
Ψυχρότητα Ανέμου: 2°C
Σημ. Δρόσου: -4°C
Υγρασία: 53%
Βαρόμετρο: 1019 hPa
Σύννεφα: Διάσπαρτα νέφη
Ορατότητα: 10 km
Ανάλυση νέφωσης: Διάσπαρτα νέφη 762 m
2021/01/18 13:20 LGMT 181320Z 01006KT 9999 FEW025 05/M04 Q1019
 
LGZA - Αεροδρόμιο "Διονύσιος Σολωμός"
Ζάκυνθος - Ιόνιοι Νήσοι - Ελλάδα
Γ.Πλάτ: 37.7500 - Γ.Μήκ: 20.8667 - Υψόμ: 3μ
Απόσταση από το Vouhead Weather: (ΝΝΔ) 362χλμ
Ενημερώθηκε: 18/01/2021 14:50
Διάσπαρτα νέφη
Διάσπαρτα νέφη
 Άνεμος από ΒΒΑ
Άνεμος: ΒΒΑ 24 km/h
Θερμοκρασία: 9°C
Ψυχρότητα Ανέμου: 6°C
Σημ. Δρόσου: 1°C
Υγρασία: 58%
Βαρόμετρο: 1017 hPa
Σύννεφα: Διάσπαρτα νέφη
Ορατότητα: 10 km
Ανάλυση νέφωσης: Διάσπαρτα νέφη 488 m
2021/01/18 12:50 LGZA 181250Z 02013KT 9999 FEW016 09/01 Q1017
LBGO - Αεροδρόμιο στη Γκόρνα Οριαχόβιτσα
Γκόρνα Οριαχόβιτσα - Βέλικο Τάρνοβο - Βουλγαρία
Γ.Πλάτ: 43.1500 - Γ.Μήκ: 25.7167 - Υψόμ: 86μ
Απόσταση από το Vouhead Weather: (ΒΑ) 366χλμ
Ενημερώθηκε: 18/01/2021 15:00
Νεφοσκεπής
Νεφοσκεπής
 Άνεμος από ΔΒΔ
Άνεμος: ΔΒΔ 20 km/h
Θερμοκρασία: -1°C
Ψυχρότητα Ανέμου: -7°C
Σημ. Δρόσου: -7°C
Υγρασία: 64%
Βαρόμετρο: 1021 hPa
Σύννεφα: Νεφοσκεπής
Ορατότητα: 10 km
Ανάλυση νέφωσης: Νεφοσκεπής 1128 m
2021/01/18 13:00 LBGO 181300Z AUTO 30011KT 9999 OVC037 M01/M07 Q1021 NOSIG
 
LGHI - Αεροδρόμιο "Όμηρος"
Χίος - Ιόνιοι Νήσοι - Ελλάδα
Γ.Πλάτ: 38.3167 - Γ.Μήκ: 26.1167 - Υψόμ: 4μ
Απόσταση από το Vouhead Weather: (ΝΑ) 368χλμ
Ενημερώθηκε: 18/01/2021 14:50
Διάσπαρτα νέφη
Διάσπαρτα νέφη
 Άνεμος από Β
Άνεμος: Β 17 km/h
Θερμοκρασία: 6°C
Ψυχρότητα Ανέμου: 3°C
Σημ. Δρόσου: 1°C
Υγρασία: 71%
Βαρόμετρο: 1017 hPa
Σύννεφα: Διάσπαρτα νέφη
Ορατότητα: 10 km
Ανάλυση νέφωσης: Διάσπαρτα νέφη 762 m
2021/01/18 12:50 LGHI 181250Z 36009KT 9999 FEW025 06/01 Q1017
LYPG - Αεροδρόμιο στη Ποντγκόριτσα
Ποντγκόριτσα - Γκολούμποβτσι - Μαυροβούνιο
Γ.Πλάτ: 42.3667 - Γ.Μήκ: 19.2500 - Υψόμ: 43μ
Απόσταση από το Vouhead Weather: (ΒΔ) 369χλμ
Ενημερώθηκε: 18/01/2021 15:00
Αίθριος
Αίθριος
 Άνεμος από ΒΔ
Άνεμος: ΒΔ 9 km/h
Θερμοκρασία: 6°C
Ψυχρότητα Ανέμου: 4°C
Σημ. Δρόσου: -15°C
Υγρασία: 21%
Βαρόμετρο: 1021 hPa
Περίληψη: Αίθριος
Ορατότητα: Μεγαλύτερη από 10 km
2021/01/18 13:00 LYPG 181300Z 32005KT 280V090 CAVOK 06/M15 Q1021 NOSIG
 
LGSO - Αεροδρόμιο "Δημήτριος Βικέλας"
Σύρος - Νότιο Αιγαίο - Ελλάδα
Γ.Πλάτ: 37.4167 - Γ.Μήκ: 24.9500 - Υψόμ: 72μ
Απόσταση από το Vouhead Weather: (ΝΝΑ) 390χλμ
Ενημερώθηκε: 18/01/2021 15:20

 Άνεμος από ΒΒΑ
Άνεμος: ΒΒΑ 43 km/h
Θερμοκρασία: 7°C
Ψυχρότητα Ανέμου: 2°C
Σημ. Δρόσου: -1°C
Υγρασία: 57%
Βαρόμετρο: 1017 hPa
2021/01/18 13:20 LGSO 181320Z AUTO 03023KT //// // ////// 07/M01 Q1017 RE//
LGKL - Αεροδρόμιο στη Καλαμάτα(ΒΠΑ)
Καλαμάτα - Πελοπόννησος - Ελλάδα
Γ.Πλάτ: 37.0667 - Γ.Μήκ: 22.0167 - Υψόμ: 8μ
Απόσταση από το Vouhead Weather: (ΝΝΔ) 398χλμ
Ενημερώθηκε: 18/01/2021 15:20
Μερικώς νεφελώδης
Μερικώς νεφελώδης
 Άνεμος από calm
Άνεμος: Απνοια
Θερμοκρασία: 9°C
Σημ. Δρόσου: 0°C
Υγρασία: 54%
Βαρόμετρο: 1016 hPa
Σύννεφα: Μερικώς νεφελώδης
Ορατότητα: 10 km
Ανάλυση νέφωσης: Μερικώς νεφελώδης 610 m
Μερικώς νεφελώδης 2134 m
2021/01/18 13:20 LGKL 181320Z 00000KT 9999 SCT020 SCT070 09/00 Q1016
 
LIBY - Αεροδρόμιο στη Σάντα Μαρία ντι Λέουκα
Σάντα Μαρία ντι Λέουκα - Απουλία(Λέτσε) - Ιταλία
Γ.Πλάτ: 39.8167 - Γ.Μήκ: 18.3500 - Υψόμ: 112μ
Απόσταση από το Vouhead Weather: (Δ) 402χλμ
Ενημερώθηκε: 18/01/2021 13:55
ΜΗ ΠΡΟΣΦΑΤΟ METAR

 
2021/01/18 11:55 LIBY 181155Z ///08KT 9999 SCT020 06/02 Q1018 RMK BKN SCT090 QUK 1 QUL 0 VIS MAR 15 KM VIS MIN 9999
LGMK - Αεροδρόμιο στη Μύκονο
Μύκονος - Νότιο Αιγαίο - Ελλάδα
Γ.Πλάτ: 37.4333 - Γ.Μήκ: 25.3500 - Υψόμ: 123μ
Απόσταση από το Vouhead Weather: (ΝΝΑ) 404χλμ
Ενημερώθηκε: 18/01/2021 14:50
Κυρίως νεφελώδης
Κυρίως νεφελώδης
 Άνεμος από ΒΒΑ
Άνεμος: ΒΒΑ 26 km/h, Ριπή: 46 km/h
Θερμοκρασία: 6°C
Ψυχρότητα Ανέμου: 2°C
Σημ. Δρόσου: 0°C
Υγρασία: 66%
Βαρόμετρο: 1015 hPa
Σύννεφα: Κυρίως νεφελώδης
Ορατότητα: 10 km
Ανάλυση νέφωσης: Κυρίως νεφελώδης 549 m
2021/01/18 12:50 LGMK 181250Z 03014G25KT 9999 BKN018 06/M00 Q1015
 
LYTV - Αεροδρόμιο στο Τιβάτ
Τιβάτ - Τιβάτ - Μαυροβούνιο
Γ.Πλάτ: 42.3833 - Γ.Μήκ: 18.7167 - Υψόμ: 5μ
Απόσταση από το Vouhead Weather: (ΔΒΔ) 408χλμ
Ενημερώθηκε: 18/01/2021 15:00
Αίθριος
Αίθριος
 Άνεμος από Μεταβλητός
Άνεμος: Μεταβλητός 6 km/h
Θερμοκρασία: 7°C
Σημ. Δρόσου: -11°C
Υγρασία: 27%
Βαρόμετρο: 1020 hPa
Περίληψη: Αίθριος
Ορατότητα: Μεγαλύτερη από 10 km
2021/01/18 13:00 LYTV 181300Z VRB03KT CAVOK 07/M11 Q1020 NOSIG
LIBN - Αεροδρόμιο στη Γκαλατίνα(ΒΠΑ)
Γκαλατίνα - Απουλία(Λέτσε) - Ιταλία
Γ.Πλάτ: 40.2167 - Γ.Μήκ: 18.1333 - Υψόμ: 61μ
Απόσταση από το Vouhead Weather: (Δ) 412χλμ
Ενημερώθηκε: 18/01/2021 14:55
Κυρίως νεφελώδης
Κυρίως νεφελώδης
 Άνεμος από ΒΒΔ
Άνεμος: ΒΒΔ 15 km/h
Θερμοκρασία: 5°C
Ψυχρότητα Ανέμου: 2°C
Σημ. Δρόσου: 3°C
Υγρασία: 87%
Βαρόμετρο: 1020 hPa
Σύννεφα: Κυρίως νεφελώδης
Ορατότητα: 10 km
Ανάλυση νέφωσης: Μερικώς νεφελώδης 914 m
Κυρίως νεφελώδης 1524 m
2021/01/18 12:55 LIBN 181255Z 33008KT 9999 SCT030 BKN050 05/03 Q1020 RMK OVC VIS MIN 9999 WIND THR14 33011KT WIND THR32 34009KT BLU
 
LYKV - Αεροδρόμιο στο Κράλιεβο & Λάντεβτσι
Κράλιεβο(Όμπρβα) - Σουμαντίγια και Δ. Σερβία - Σερβία
Γ.Πλάτ: 43.8167 - Γ.Μήκ: 20.5833 - Υψόμ: 209μ
Απόσταση από το Vouhead Weather: (ΒΒΔ) 412χλμ
Ενημερώθηκε: 18/01/2021 15:00
Κυρίως νεφελώδης
Κυρίως νεφελώδης
 Άνεμος από ΒΔ
Άνεμος: ΒΔ 9 km/h
Θερμοκρασία: -2°C
Ψυχρότητα Ανέμου: -6°C
Σημ. Δρόσου: -9°C
Υγρασία: 59%
Βαρόμετρο: 1024 hPa
Σύννεφα: Κυρίως νεφελώδης
Ορατότητα: 10 km
Ανάλυση νέφωσης: Κυρίως νεφελώδης 1219 m
2021/01/18 13:00 LYKV 181300Z 31005KT 9999 BKN040 M02/M09 Q1024 13/////// NOSIG
LTBU - Αεροδρόμιο στο Τσορλού(ΒΠΑ)
Τσορλού - Μαρμαράς(Τεκιρντάγ-Ραιδεστός) - Τουρκία
Γ.Πλάτ: 41.1167 - Γ.Μήκ: 27.9167 - Υψόμ: 173μ
Απόσταση από το Vouhead Weather: (Α) 420χλμ
Ενημερώθηκε: 18/01/2021 14:50
Αίθριος
Αίθριος
 Άνεμος από ΒΒΔ
Άνεμος: ΒΒΔ 7 km/h
Θερμοκρασία: 1°C
Ψυχρότητα Ανέμου: -2°C
Σημ. Δρόσου: -12°C
Υγρασία: 38%
Βαρόμετρο: 1020 hPa
Περίληψη: Αίθριος
Ορατότητα: Μεγαλύτερη από 10 km
2021/01/18 12:50 LTBU 181250Z 34004KT 300V050 CAVOK 01/M12 Q1020
 
LRCV - Αεροδρόμιο στη Κραϊόβα
Κραϊόβα - Δολζ - Ρουμανία
Γ.Πλάτ: 44.3167 - Γ.Μήκ: 23.8833 - Υψόμ: 191μ
Απόσταση από το Vouhead Weather: (Β) 424χλμ
Ενημερώθηκε: 18/01/2021 15:00
Αίθριος
Αίθριος
 Άνεμος από ΔΝΔ
Άνεμος: ΔΝΔ 31 km/h
Θερμοκρασία: -2°C
Ψυχρότητα Ανέμου: -9°C
Σημ. Δρόσου: -9°C
Υγρασία: 59%
Βαρόμετρο: 1019 hPa
Περίληψη: Αίθριος
Ορατότητα: Μεγαλύτερη από 10 km
2021/01/18 13:00 LRCV 181300Z 25017KT CAVOK M02/M09 Q1019
LIBR - Αεροδρόμιο στο Μπρίντιζι
(Ανεπίσημο όνομα αεροδρομίου: Ντελ Σαλέντο)
Μπρίντιζι(Πάπολα-Καζάλε) - Απουλία(Μπρίντιζι) - Ιταλία
Γ.Πλάτ: 40.6500 - Γ.Μήκ: 17.9500 - Υψόμ: 10μ
Απόσταση από το Vouhead Weather: (Δ) 424χλμ
Ενημερώθηκε: 18/01/2021 15:20
Μερικώς νεφελώδης
Μερικώς νεφελώδης
 Άνεμος από Β
Άνεμος: Β 20 km/h
Θερμοκρασία: 6°C
Ψυχρότητα Ανέμου: 2°C
Σημ. Δρόσου: -1°C
Υγρασία: 61%
Βαρόμετρο: 1021 hPa
Σύννεφα: Μερικώς νεφελώδης
Ορατότητα: 10 km
Ανάλυση νέφωσης: Μερικώς νεφελώδης 1219 m
2021/01/18 13:20 LIBR 181320Z 36011KT 9999 SCT040 06/M01 Q1021
 
LBBG - Αεροδρόμιο στo Μπουργκάς
Μπουργκάς(Σαράφοβο) - Μπουργκάς - Βουλγαρία
Γ.Πλάτ: 42.5000 - Γ.Μήκ: 27.4833 - Υψόμ: 28μ
Απόσταση από το Vouhead Weather: (ΑΒΑ) 432χλμ
Ενημερώθηκε: 18/01/2021 15:00
Διάσπαρτα νέφη
Διάσπαρτα νέφη
 Άνεμος από Δ
Άνεμος: Δ 20 km/h
Θερμοκρασία: 2°C
Ψυχρότητα Ανέμου: -3°C
Σημ. Δρόσου: -11°C
Υγρασία: 38%
Βαρόμετρο: 1020 hPa
Σύννεφα: Διάσπαρτα νέφη
Ορατότητα: 10 km
Ανάλυση νέφωσης: Διάσπαρτα νέφη 914 m
2021/01/18 13:00 LBBG 181300Z 26011KT 9999 FEW030 02/M11 Q1020 NOSIG
LGPA - Αεροδρόμιο "Παντελαίειο"
Πάρος - Νότιο Αιγαίο - Ελλάδα
Γ.Πλάτ: 37.0000 - Γ.Μήκ: 25.0667 - Υψόμ: 36μ
Απόσταση από το Vouhead Weather: (ΝΝΑ) 436χλμ
Ενημερώθηκε: 18/01/2021 15:20

 Άνεμος από ΒΒΑ
Άνεμος: ΒΒΑ 30 km/h
Θερμοκρασία: 7°C
Ψυχρότητα Ανέμου: 3°C
Σημ. Δρόσου: -1°C
Υγρασία: 57%
Βαρόμετρο: 1017 hPa
2021/01/18 13:20 LGPA 181320Z AUTO 02016KT //// // ////// 07/M01 Q1017 RE//
 
LGNX - Αεροδρόμιο στη Νάξο
Νάξος - Νότιο Αιγαίο - Ελλάδα
Γ.Πλάτ: 37.0833 - Γ.Μήκ: 25.3667 - Υψόμ: 4μ
Απόσταση από το Vouhead Weather: (ΝΝΑ) 439χλμ
Ενημερώθηκε: 18/01/2021 13:50
ΜΗ ΠΡΟΣΦΑΤΟ METAR
Κυρίως νεφελώδης
Κυρίως νεφελώδης
 Άνεμος από ΒΒΑ
Άνεμος: ΒΒΑ 30 km/h
Θερμοκρασία: 7°C
Ψυχρότητα Ανέμου: 3°C
Σημ. Δρόσου: 2°C
Υγρασία: 71%
Βαρόμετρο: 1016 hPa
Σύννεφα: Κυρίως νεφελώδης
Ορατότητα: 10 km
Ανάλυση νέφωσης: Διάσπαρτα νέφη 549 m
Κυρίως νεφελώδης 762 m
2021/01/18 11:50 LGNX 181150Z 03016KT 9999 FEW018 BKN025 07/02 Q1016
LTBJ - Αεροδρόμιο "Αντνάν Μεντερές"
Σμύρνη - Αιγαίο(Σμύρνη) - Τουρκία
Γ.Πλάτ: 38.2667 - Γ.Μήκ: 27.1333 - Υψόμ: 120μ
Απόσταση από το Vouhead Weather: (ΝΑ) 439χλμ
Ενημερώθηκε: 18/01/2021 14:50
Μερικώς νεφελώδης
Μερικώς νεφελώδης
 Άνεμος από Β
Άνεμος: Β 20 km/h
Θερμοκρασία: 6°C
Ψυχρότητα Ανέμου: 2°C
Σημ. Δρόσου: -8°C
Υγρασία: 36%
Βαρόμετρο: 1016 hPa
Σύννεφα: Μερικώς νεφελώδης
Ορατότητα: 10 km
Ανάλυση νέφωσης: Διάσπαρτα νέφη 914 m
Μερικώς νεφελώδης 5486 m
2021/01/18 12:50 LTBJ 181250Z 01011KT 330V030 9999 FEW030 SCT180 06/M08 Q1016 NOSIG
 
LDDU - Αεροδρόμιο στο Ντουμπρόβνικ
Ντουμπρόβνικ - Ντουμπρόβνικ Νερέτβα - Κροατία
Γ.Πλάτ: 42.5667 - Γ.Μήκ: 18.2667 - Υψόμ: 165μ
Απόσταση από το Vouhead Weather: (ΔΒΔ) 450χλμ
Ενημερώθηκε: 18/01/2021 15:00
Αίθριος
Αίθριος
 Άνεμος από Μεταβλητός
Άνεμος: Μεταβλητός 7 km/h
Θερμοκρασία: 5°C
Ψυχρότητα Ανέμου: 3°C
Σημ. Δρόσου: -10°C
Υγρασία: 33%
Βαρόμετρο: 1020 hPa
Περίληψη: Αίθριος
Ορατότητα: Μεγαλύτερη από 10 km
2021/01/18 13:00 LDDU 181300Z VRB04KT CAVOK 05/M10 Q1020 NOSIG
LYUZ - Αεροδρόμιο στην Ούζιτσε & Πόνικβε
(Ανεπίσημο όνομα αεροδρομίου: Λέπα Γκλάβα)
Ούζιτσε - Σουμαντίγια και Δ. Σερβία - Σερβία
Γ.Πλάτ: 43.9000 - Γ.Μήκ: 19.7000 - Υψόμ: 904μ
Απόσταση από το Vouhead Weather: (ΒΔ) 458χλμ
Ενημερώθηκε: 18/01/2021 15:00
Μερικώς νεφελώδης
Μερικώς νεφελώδης
 Άνεμος από ΔΒΔ
Άνεμος: ΔΒΔ 13 km/h
Θερμοκρασία: -9°C
Ψυχρότητα Ανέμου: -15°C
Σημ. Δρόσου: -13°C
Υγρασία: 73%
Βαρόμετρο: 1019 hPa
Σύννεφα: Μερικώς νεφελώδης
Ορατότητα: 10 km
Ανάλυση νέφωσης: Μερικώς νεφελώδης 610 m
2021/01/18 13:00 LYUZ 181300Z 29007KT 270V330 9999 SCT020 M09/M13 Q1019
 
LGSM - Αεροδρόμιο "Αρίσταρχος ο Σάμιος"
Σάμος - Βόρειο Αιγαίο - Ελλάδα
Γ.Πλάτ: 37.6833 - Γ.Μήκ: 26.9167 - Υψόμ: 6μ
Απόσταση από το Vouhead Weather: (ΝΑ) 467χλμ
Ενημερώθηκε: 18/01/2021 14:50
Κυρίως νεφελώδης
Κυρίως νεφελώδης
 Άνεμος από ΒΑ
Άνεμος: ΒΑ 17 km/h
Θερμοκρασία: 6°C
Ψυχρότητα Ανέμου: 3°C
Σημ. Δρόσου: -1°C
Υγρασία: 61%
Βαρόμετρο: 1016 hPa
Σύννεφα: Κυρίως νεφελώδης
Ορατότητα: 10 km
Ανάλυση νέφωσης: Διάσπαρτα νέφη 610 m
Κυρίως νεφελώδης 1829 m
2021/01/18 12:50 LGSM 181250Z 04009KT 9999 FEW020 BKN060 06/M01 Q1016
LIBG - Αεροδρόμιο "Μαρτσέλο Αρλόττα"
Μουντιάζι(Ταράντο-Γκροτάλιε)-Απουλία(Ταράντο)-Ιταλία
Γ.Πλάτ: 40.5167 - Γ.Μήκ: 17.3833 - Υψόμ: 69μ
Απόσταση από το Vouhead Weather: (Δ) 472χλμ
Ενημερώθηκε: 18/01/2021 14:50
Κυρίως νεφελώδης
Κυρίως νεφελώδης
 Άνεμος από Μεταβλητός
Άνεμος: Μεταβλητός 0 km/h
Θερμοκρασία: 6°C
Σημ. Δρόσου: -3°C
Υγρασία: 53%
Βαρόμετρο: 1021 hPa
Σύννεφα: Κυρίως νεφελώδης
Ορατότητα: 10 km
Ανάλυση νέφωσης: Διάσπαρτα νέφη 457 m
Κυρίως νεφελώδης 1067 m
2021/01/18 12:50 LIBG 181250Z /////KT 9999 FEW015 BKN035 06/M03 Q1021
 
LGKC - Αεροδρόμιο στα Κύθηρα
Κύθηρα(Επτάνησα) - Αττική(Νήσοι) - Ελλάδα
Γ.Πλάτ: 36.2833 - Γ.Μήκ: 23.0167 - Υψόμ: 319μ
Απόσταση από το Vouhead Weather: (Ν) 476χλμ
Ενημερώθηκε: 18/01/2021 14:50
Κυρίως νεφελώδης
Κυρίως νεφελώδης
 Άνεμος από ΒΒΑ
Άνεμος: ΒΒΑ 37 km/h
Θερμοκρασία: 5°C
Ψυχρότητα Ανέμου: -1°C
Σημ. Δρόσου: 3°C
Υγρασία: 87%
Βαρόμετρο: 1015 hPa
Σύννεφα: Κυρίως νεφελώδης
Ορατότητα: 9 km
Ανάλυση νέφωσης: Διάσπαρτα νέφη 366 m
Κυρίως νεφελώδης 610 m
2021/01/18 12:50 LGKC 181250Z 02020KT 9000 FEW012 BKN020 05/03 Q1015
LTBA - Αεροδρόμιο "Ατατούρκ"
Κωνσταντινούπολη - Μαρμαράς(Κων/πολη) - Τουρκία
Γ.Πλάτ: 40.9667 - Γ.Μήκ: 28.8167 - Υψόμ: 37μ
Απόσταση από το Vouhead Weather: (Α) 494χλμ
Ενημερώθηκε: 18/01/2021 14:50
Κυρίως νεφελώδης
Κυρίως νεφελώδης
 Άνεμος από Β
Άνεμος: Β 7 km/h
Θερμοκρασία: 1°C
Ψυχρότητα Ανέμου: -2°C
Σημ. Δρόσου: -6°C
Υγρασία: 60%
Βαρόμετρο: 1021 hPa
Σύννεφα: Κυρίως νεφελώδης
Ορατότητα: 10 km
Ανάλυση νέφωσης: Κυρίως νεφελώδης 1067 m
2021/01/18 12:50 LTBA 181250Z 36004KT 310V050 9999 BKN035 01/M06 Q1021 NOSIG
   Μην χρησιμοποιήσετε τα στοιχεία για αποφάσεις που αφορούν ζωές και πάσης φύσεως ιδιοκτησίες  
ΠΗΓΑΙΝΕΤΕ ΣΤΗΝ ΙΟΝΙΑ GO TO REA ΠΗΓΑΙΝΕΤΕ ΣΤΗΝ ΚΗΦΙΣΙΑ ΠΗΓΑΙΝΕΤΕ ΣΤΗΝ ΣΥΡΟ ΠΗΓΑΙΝΕΤΕ ΣΤΗΝ ΔΕΞΑΜΕΝΗ (BOLTEK) ΠΗΓΑΙΝΕΤΕ ΣΤΗΝ ΔΕΞΑΜΕΝΗ (LR) ΠΗΓΑΙΝΕΤΕ ΣΤΗΝ ΛΑΡΙΣΑ Γενική Γραμματεία Πολιτικής Προστασίας Ενιαίος Ευρωπαϊκός Αριθμός Έκτακτης Ανάγκης Βίντεο για το Καστελλόριζο(Μεγίστη) από τα αρχεία της ΕΡΤ Ιστοσελίδα Δήμου Μεγίστης Δείτε το μεγαλύτερο